Time;durP1;ratioP1;P1;durP2;ratioP2;P2;SDS_P1;SDS_P2;PMS_P1;PMS_P2;Temp;Humidity;BMP_temperature;BMP_pressure;BME280_temperature;BME280_humidity;BME280_pressure;Samples;Min_cycle;Max_cycle;Signal;HPM_P1;HPM_P2
2022/01/30 00:00:00;;;;;;;6.17;4.90;;;;;;;-1.32;65.54;99443.70;1724443;81;21687;-62
2022/01/30 00:02:28;;;;;;;10.53;5.90;;;;;;;-1.34;65.53;99432.08;1713281;82;21029;-62
2022/01/30 00:04:55;;;;;;;12.50;5.37;;;;;;;-1.37;65.87;99428.44;1711931;82;21561;-61
2022/01/30 00:07:21;;;;;;;12.23;5.55;;;;;;;-1.33;65.86;99410.21;1718090;82;21149;-61
2022/01/30 00:09:50;;;;;;;11.00;4.13;;;;;;;-1.33;65.87;99404.98;1722404;82;21514;-62
2022/01/30 00:12:19;;;;;;;8.00;5.43;;;;;;;-1.34;65.83;99392.86;1719745;82;21006;-61
2022/01/30 00:14:45;;;;;;;7.27;5.13;;;;;;;-1.33;65.94;99387.17;1712978;82;21018;-62
2022/01/30 00:17:18;;;;;;;6.12;4.53;;;;;;;-1.33;65.97;99386.68;1704885;82;21011;-61
2022/01/30 00:24:56;;;;;;;10.93;5.07;;;;;;;-1.31;66.11;99364.33;1721128;82;21172;-60
2022/01/30 00:27:29;;;;;;;9.40;5.57;;;;;;;-1.31;66.19;99366.45;1720313;82;21064;-60
2022/01/30 00:29:50;;;;;;;9.40;5.83;;;;;;;-1.32;66.17;99352.20;1728133;82;21495;-61
2022/01/30 00:32:17;;;;;;;15.57;6.63;;;;;;;-1.40;66.31;99336.71;1729963;82;21246;-63
2022/01/30 00:34:43;;;;;;;9.95;5.45;;;;;;;-1.68;66.37;99277.41;1724647;82;21578;-61
2022/01/30 00:37:10;;;;;;;9.73;4.85;;;;;;;-1.43;66.38;99317.40;1732243;82;21407;-61
2022/01/30 00:39:36;;;;;;;;;;;;;;;-1.43;66.42;99305.64;1730833;82;21530;-62
2022/01/30 00:42:03;;;;;;;6.10;4.43;;;;;;;-1.40;66.32;99293.58;1707113;82;20473;-61
2022/01/30 00:44:29;;;;;;;8.37;5.30;;;;;;;-1.46;66.38;99284.98;1732065;82;21098;-61
2022/01/30 00:46:56;;;;;;;7.05;4.75;;;;;;;-1.40;66.43;99275.77;1732902;82;21537;-61
2022/01/30 00:49:23;;;;;;;8.35;5.50;;;;;;;-1.36;66.20;99266.69;1733166;82;21516;-60
2022/01/30 00:51:49;;;;;;;7.83;5.00;;;;;;;-1.30;66.04;99257.00;1720398;82;21528;-61
2022/01/30 00:54:15;;;;;;;8.70;4.72;;;;;;;-1.27;65.95;99246.73;1713935;82;21011;-62
2022/01/30 00:56:41;;;;;;;7.60;5.33;;;;;;;-1.25;65.93;99232.55;1731599;80;20996;-61
2022/01/30 00:59:07;;;;;;;5.75;3.72;;;;;;;-1.26;65.71;99238.77;1721809;82;21038;-62
2022/01/30 01:01:33;;;;;;;8.03;4.78;;;;;;;-1.23;65.61;99224.58;1716391;82;21041;-61
2022/01/30 01:04:00;;;;;;;6.53;4.67;;;;;;;-1.20;65.58;99217.77;1731058;82;21027;-60
2022/01/30 01:06:26;;;;;;;8.38;4.97;;;;;;;-1.24;65.34;99202.84;1724983;82;21082;-61
2022/01/30 01:08:58;;;;;;;4.72;4.20;;;;;;;-1.21;65.32;99185.55;1726593;82;21041;-61
2022/01/30 01:24:50;;;;;;;8.07;5.03;;;;;;;-1.16;65.27;99145.91;1720903;82;21278;-60
2022/01/30 01:27:16;;;;;;;6.55;3.77;;;;;;;-1.64;65.28;99060.14;1723265;82;20987;-61
2022/01/30 01:29:42;;;;;;;5.80;3.67;;;;;;;-1.16;65.24;99124.17;1722314;82;21014;-60
2022/01/30 01:32:08;;;;;;;8.13;4.83;;;;;;;-1.14;65.10;99111.29;1724306;82;21083;-60
2022/01/30 01:34:38;;;;;;;7.37;4.83;;;;;;;-1.13;65.07;99106.88;1724725;82;21078;-62
2022/01/30 01:37:03;;;;;;;6.70;4.83;;;;;;;-1.11;64.94;99104.94;1717097;81;21034;-60
2022/01/30 01:39:30;;;;;;;7.93;4.30;;;;;;;-1.10;64.96;99107.91;1716348;82;21089;-60
2022/01/30 01:41:56;;;;;;;6.58;4.22;;;;;;;-1.14;64.76;99106.06;1722734;82;21009;-60
2022/01/30 01:44:32;;;;;;;5.92;3.22;;;;;;;-1.11;64.92;99087.94;1703779;81;20983;-60
2022/01/30 01:46:54;;;;;;;5.97;3.67;;;;;;;-1.16;64.66;99083.16;1657943;84;21114;-61
2022/01/30 01:49:27;;;;;;;5.05;3.80;;;;;;;-1.13;64.78;99078.95;1717400;82;21115;-60
2022/01/30 01:52:01;;;;;;;6.70;3.67;;;;;;;-1.12;64.82;99075.84;1716202;82;21007;-61
2022/01/30 01:54:17;;;;;;;11.77;3.60;;;;;;;-1.11;64.80;99081.41;1711235;82;21082;-60
2022/01/30 01:56:43;;;;;;;5.40;3.95;;;;;;;-1.14;64.77;99070.75;1682726;84;21459;-62
2022/01/30 01:59:17;;;;;;;5.47;3.83;;;;;;;-1.17;65.06;99054.03;1690345;83;21530;-60
2022/01/30 02:01:59;;;;;;;6.07;4.10;;;;;;;-1.14;65.19;99063.41;1735956;80;21013;-62
2022/01/30 02:04:24;;;;;;;6.30;3.97;;;;;;;-1.10;65.17;99047.76;1743367;81;21015;-61
2022/01/30 02:07:06;;;;;;;;;;;;;;;-1.11;65.28;99060.48;1742717;80;21049;-60
2022/01/30 02:09:28;;;;;;;5.13;3.73;;;;;;;-1.08;65.37;99058.41;1750419;80;20132;-62
2022/01/30 02:11:50;;;;;;;6.40;3.77;;;;;;;-1.12;66.13;99029.59;1740555;80;21069;-61
2022/01/30 02:14:29;;;;;;;5.87;3.42;;;;;;;-1.14;67.69;99036.77;1748879;81;21451;-61
2022/01/30 02:27:48;;;;;;;4.05;3.30;;;;;;;-1.51;74.49;98994.47;1764322;80;21078;-62
2022/01/30 02:30:19;;;;;;;7.28;5.37;;;;;;;-1.61;75.23;98972.30;1743103;80;21543;-60
2022/01/30 02:32:47;;;;;;;4.50;3.40;;;;;;;-1.71;76.67;98964.16;1735130;80;21126;-61
2022/01/30 02:35:14;;;;;;;4.47;3.70;;;;;;;-1.77;77.75;98954.64;1747619;80;20982;-61
2022/01/30 02:37:40;;;;;;;3.90;3.33;;;;;;;-1.83;78.06;98956.98;1743052;80;21542;-61
2022/01/30 02:40:11;;;;;;;5.42;3.87;;;;;;;-1.87;77.81;98945.99;1742437;80;21085;-61
2022/01/30 02:42:45;;;;;;;5.67;3.10;;;;;;;-1.83;78.20;98926.48;1742742;81;21097;-63
2022/01/30 02:45:11;;;;;;;3.47;2.73;;;;;;;-1.83;78.50;98926.48;1720506;80;21022;-62
2022/01/30 02:47:54;;;;;;;8.00;3.40;;;;;;;-1.82;78.64;98899.88;1740876;80;21109;-62
2022/01/30 02:52:40;;;;;;;4.80;3.90;;;;;;;-1.90;81.22;98898.45;1736094;80;21046;-60
2022/01/30 02:55:09;;;;;;;3.57;3.27;;;;;;;-1.92;81.50;98885.55;1732626;80;21586;-63
2022/01/30 02:57:36;;;;;;;7.13;3.47;;;;;;;-2.07;81.97;98868.23;1741849;80;21073;-62
2022/01/30 03:00:06;;;;;;;9.33;4.22;;;;;;;-2.04;82.85;98866.62;1738187;80;21515;-61
2022/01/30 03:02:32;;;;;;;7.20;3.30;;;;;;;-2.07;83.48;98860.86;1743072;80;20983;-61
2022/01/30 03:04:59;;;;;;;6.50;3.95;;;;;;;-2.06;84.39;98848.16;1747678;80;21112;-61
2022/01/30 03:07:25;;;;;;;3.72;3.42;;;;;;;-2.10;84.44;98830.64;1736595;80;20995;-62
2022/01/30 03:09:53;;;;;;;4.37;3.57;;;;;;;-2.08;85.29;98837.84;1732594;81;21089;-61
2022/01/30 03:12:19;;;;;;;5.85;3.85;;;;;;;-2.06;85.24;98823.34;1736477;80;21067;-60
2022/01/30 03:14:45;;;;;;;9.65;3.05;;;;;;;-2.09;85.71;98831.46;1748790;80;21007;-61
2022/01/30 03:17:12;;;;;;;4.05;3.12;;;;;;;-2.09;86.17;98820.55;1746307;80;21090;-60
2022/01/30 03:19:38;;;;;;;7.73;3.50;;;;;;;-2.14;86.05;98810.20;1746235;81;21022;-62
2022/01/30 03:22:05;;;;;;;5.20;3.47;;;;;;;-2.14;85.49;98811.02;1736378;80;22337;-60
2022/01/30 03:24:35;;;;;;;5.70;4.12;;;;;;;-2.15;85.50;98801.53;1747810;80;20999;-63
2022/01/30 03:27:00;;;;;;;6.67;3.73;;;;;;;-2.20;85.70;98777.67;1759521;80;21122;-61
2022/01/30 03:29:28;;;;;;;3.40;3.10;;;;;;;-2.23;86.00;98772.73;1746660;80;20986;-62
2022/01/30 03:31:54;;;;;;;3.75;3.40;;;;;;;-2.26;86.24;98762.11;1744858;80;21014;-61
2022/01/30 03:34:20;;;;;;;4.47;2.17;;;;;;;-2.24;86.32;98760.17;1731480;80;21577;-61
2022/01/30 03:36:51;;;;;;;7.27;3.73;;;;;;;-2.18;86.42;98755.66;1757131;80;21045;-61
2022/01/30 03:39:18;;;;;;;5.70;2.77;;;;;;;-2.13;86.38;98745.27;1748809;80;20999;-61
2022/01/30 03:41:45;;;;;;;12.37;3.80;;;;;;;-2.08;86.44;98737.83;1741744;80;21051;-62
2022/01/30 03:44:13;;;;;;;4.70;3.03;;;;;;;-2.01;86.48;98728.44;1735387;81;21002;-61
2022/01/30 03:46:39;;;;;;;5.97;3.45;;;;;;;-1.99;86.49;98721.28;1724814;80;21148;-61
2022/01/30 03:49:05;;;;;;;3.50;3.20;;;;;;;-1.92;86.68;98708.44;1728477;81;21094;-61
2022/01/30 03:51:33;;;;;;;6.27;3.40;;;;;;;-1.93;86.98;98704.20;1741968;80;21045;-61
2022/01/30 03:54:01;;;;;;;4.57;2.70;;;;;;;-1.94;87.44;98698.16;1742744;80;20994;-61
2022/01/30 03:56:27;;;;;;;4.22;3.22;;;;;;;-1.97;88.19;98686.20;1709497;82;21065;-61
2022/01/30 03:58:54;;;;;;;3.05;2.70;;;;;;;-1.97;88.96;98683.59;1701274;82;21149;-63
2022/01/30 04:01:20;;;;;;;7.33;3.40;;;;;;;-2.01;89.72;98673.61;1718112;82;20991;-61
2022/01/30 04:03:47;;;;;;;4.62;3.15;;;;;;;-2.04;90.28;98666.06;1727918;82;21081;-61
2022/01/30 04:06:13;;;;;;;6.03;3.02;;;;;;;-2.05;90.81;98659.22;1733756;82;20979;-60
2022/01/30 04:08:40;;;;;;;2.60;2.30;;;;;;;-2.05;91.45;98657.91;1726856;82;21113;-60
2022/01/30 04:11:11;;;;;;;3.60;3.27;;;;;;;-2.10;91.55;98666.66;1722963;81;21089;-61
2022/01/30 04:13:40;;;;;;;3.80;3.43;;;;;;;-2.14;91.89;98650.47;1722113;82;21019;-63
2022/01/30 04:16:10;;;;;;;3.43;3.13;;;;;;;-2.16;92.16;98628.42;1714100;82;21050;-60
2022/01/30 04:18:38;;;;;;;6.60;3.17;;;;;;;-2.13;92.76;98645.56;1703438;82;21018;-62
2022/01/30 04:21:26;;;;;;;2.70;2.10;;;;;;;-2.17;93.67;98630.72;1718011;82;21062;-61
2022/01/30 04:23:57;;;;;;;2.67;2.20;;;;;;;-2.16;96.91;98615.38;1712180;82;21570;-62
2022/01/30 04:26:32;;;;;;;8.17;1.87;;;;;;;-2.15;95.60;98612.27;1713307;82;21018;-61
2022/01/30 04:29:13;;;;;;;4.63;2.53;;;;;;;-2.08;95.76;98598.15;1705431;82;21094;-61
2022/01/30 04:31:59;;;;;;;4.30;2.40;;;;;;;-2.08;95.41;98594.23;1703329;82;21034;-61
2022/01/30 04:34:35;;;;;;;3.23;2.37;;;;;;;-2.10;95.33;98572.67;1727757;80;21514;-62
2022/01/30 04:37:23;;;;;;;2.77;1.87;;;;;;;-2.12;95.24;98564.99;1732204;80;20997;-62
2022/01/30 04:40:15;;;;;;;5.87;2.27;;;;;;;-2.14;95.71;98581.30;1732208;80;21010;-62
2022/01/30 05:05:34;;;;;;;4.10;2.10;;;;;;;-2.08;96.52;98535.48;1701573;82;21529;-61
2022/01/30 05:07:39;;;;;;;3.90;2.10;;;;;;;-2.08;95.40;98521.13;1701660;82;21037;-63
2022/01/30 05:10:11;;;;;;;2.30;1.77;;;;;;;-2.10;94.48;98508.72;1699455;82;21045;-62
2022/01/30 05:12:58;;;;;;;2.77;2.30;;;;;;;-2.14;94.49;98505.59;1706038;82;21026;-61
2022/01/30 05:15:30;;;;;;;3.33;2.33;;;;;;;-2.12;94.97;98518.50;1661914;84;21085;-61
2022/01/30 05:18:02;;;;;;;3.73;2.60;;;;;;;-2.11;94.82;98494.86;1665502;82;21065;-61
2022/01/30 05:20:46;;;;;;;7.70;3.10;;;;;;;-2.16;94.41;98499.20;1699074;82;21042;-63
2022/01/30 05:23:19;;;;;;;4.83;2.77;;;;;;;-2.18;94.28;98486.80;1697751;82;21074;-63
2022/01/30 05:25:50;;;;;;;2.93;2.60;;;;;;;-2.17;94.56;98489.76;1701083;82;21531;-64
2022/01/30 05:28:18;;;;;;;7.53;2.37;;;;;;;-2.17;94.40;98479.31;1711684;82;21052;-62
2022/01/30 05:30:51;;;;;;;6.67;2.70;;;;;;;-2.14;94.23;98495.64;1711367;82;21566;-62
2022/01/30 05:33:21;;;;;;;3.87;3.33;;;;;;;-2.13;94.25;98472.47;1707391;82;21034;-63
2022/01/30 05:35:54;;;;;;;4.07;2.73;;;;;;;-2.08;94.93;98468.42;1712674;82;21016;-62
2022/01/30 05:38:25;;;;;;;3.77;3.33;;;;;;;-2.10;94.20;98451.28;1713118;82;21173;-63
2022/01/30 05:41:13;;;;;;;;;;;;;;;-2.10;94.14;98451.28;1702035;83;21069;-63
2022/01/30 05:44:09;;;;;;;4.63;4.00;;;;;;;-2.12;94.17;98457.16;1710500;82;20162;-63
2022/01/30 05:46:54;;;;;;;3.83;2.50;;;;;;;-2.24;93.95;98453.48;1701918;82;21611;-62
2022/01/30 05:49:27;;;;;;;5.40;2.60;;;;;;;-2.23;94.63;98440.75;1712121;82;21049;-63
2022/01/30 05:52:07;;;;;;;3.23;2.50;;;;;;;-2.20;94.64;98442.26;1704280;82;21145;-64
2022/01/30 05:54:35;;;;;;;6.23;3.47;;;;;;;-2.27;94.25;98455.08;1697671;82;21069;-63
2022/01/30 05:57:02;;;;;;;6.12;3.35;;;;;;;-2.29;94.38;98436.64;1724298;81;21047;-64
2022/01/30 05:59:28;;;;;;;5.10;3.83;;;;;;;-2.22;94.68;98425.44;1720735;81;21060;-63
2022/01/30 06:02:13;;;;;;;5.47;3.40;;;;;;;-2.23;94.49;98426.40;1734892;81;21119;-64
2022/01/30 06:04:39;;;;;;;5.50;3.85;;;;;;;-2.19;94.86;98413.37;1728846;81;21043;-63
2022/01/30 06:07:08;;;;;;;3.47;2.95;;;;;;;-2.21;94.38;98407.48;1721451;81;22219;-63
2022/01/30 06:09:33;;;;;;;5.73;3.47;;;;;;;-2.20;94.42;98444.87;1685710;83;21476;-64
2022/01/30 06:12:00;;;;;;;4.57;4.03;;;;;;;-2.17;94.44;98422.36;1722787;81;21261;-64
2022/01/30 06:14:27;;;;;;;6.62;3.80;;;;;;;-2.18;94.45;98430.68;1716786;81;21043;-64
2022/01/30 06:16:58;;;;;;;4.33;3.90;;;;;;;-2.17;94.87;98417.13;1719236;81;21915;-64
2022/01/30 06:19:43;;;;;;;5.50;4.03;;;;;;;-2.18;94.76;98425.45;1729310;81;21043;-64
2022/01/30 06:22:11;;;;;;;4.43;4.03;;;;;;;-2.17;94.85;98416.67;1727787;81;21256;-64
2022/01/30 06:24:56;;;;;;;4.00;3.60;;;;;;;-2.12;95.17;98408.36;1723821;81;21536;-63
2022/01/30 06:27:27;;;;;;;6.73;4.30;;;;;;;-2.06;95.22;98396.48;1713746;81;21635;-64
2022/01/30 06:29:57;;;;;;;3.63;3.33;;;;;;;-1.99;95.29;98411.86;1698730;81;21103;-66
2022/01/30 06:32:42;;;;;;;9.90;4.57;;;;;;;-2.01;94.60;98383.30;1717035;81;21028;-65
2022/01/30 06:35:10;;;;;;;8.57;3.20;;;;;;;-2.00;94.07;98378.88;1706133;82;21037;-64
2022/01/30 06:37:38;;;;;;;6.10;4.30;;;;;;;-1.97;94.13;98369.44;1697109;82;21019;-66
2022/01/30 06:40:17;;;;;;;6.43;3.87;;;;;;;-1.97;93.86;98372.86;1709085;82;21093;-65
2022/01/30 06:43:02;;;;;;;5.03;4.53;;;;;;;-1.98;93.69;98344.30;1712915;82;21125;-64
2022/01/30 06:45:48;;;;;;;8.77;4.90;;;;;;;-1.91;93.04;98344.00;1712702;82;21021;-64
2022/01/30 06:48:34;;;;;;;4.78;4.25;;;;;;;-1.91;92.95;98359.67;1701493;82;21874;-65
2022/01/30 06:51:18;;;;;;;5.17;3.43;;;;;;;-1.90;93.04;98350.88;1701996;82;21037;-66
2022/01/30 06:53:52;;;;;;;6.97;4.60;;;;;;;-1.88;92.87;98352.03;1696377;82;21041;-63
2022/01/30 06:56:37;;;;;;;6.30;4.33;;;;;;;-1.85;92.97;98336.83;1732883;80;21580;-64
2022/01/30 06:59:21;;;;;;;7.13;4.20;;;;;;;-1.87;92.70;98351.84;1743780;81;21031;-64
2022/01/30 07:02:07;;;;;;;5.57;4.40;;;;;;;-1.85;92.89;98329.00;1708642;81;21577;-66
2022/01/30 07:04:53;;;;;;;;;;;;;;;-1.84;92.87;98324.13;1704626;82;21375;-65
2022/01/30 07:07:25;;;;;;;8.33;5.50;;;;;;;-1.80;93.37;98329.34;1709075;82;20190;-66
2022/01/30 07:09:52;;;;;;;6.83;4.07;;;;;;;-1.76;93.97;98320.22;1706475;82;21057;-65
2022/01/30 07:12:18;;;;;;;4.73;3.70;;;;;;;-1.68;93.88;98308.16;1704038;81;21093;-66
2022/01/30 07:14:44;;;;;;;5.83;3.98;;;;;;;-1.62;93.91;98320.57;1710680;82;21574;-66
2022/01/30 07:17:11;;;;;;;5.03;3.27;;;;;;;-1.52;94.32;98323.87;1710022;82;21179;-67
2022/01/30 07:19:39;;;;;;;4.40;3.52;;;;;;;-1.47;93.60;98312.47;1699148;82;21038;-64
2022/01/30 07:22:05;;;;;;;4.47;3.20;;;;;;;-1.43;93.17;98294.64;1705170;82;21054;-66
2022/01/30 07:24:32;;;;;;;5.17;3.77;;;;;;;-1.40;92.99;98306.89;1706795;82;21679;-64
2022/01/30 07:26:59;;;;;;;;;;;;;;;-1.28;93.68;98316.57;1714801;82;21034;-65
2022/01/30 07:29:25;;;;;;;5.10;3.07;;;;;;;-1.20;93.25;98305.30;1711622;82;20198;-67
2022/01/30 07:31:51;;;;;;;3.87;3.37;;;;;;;-1.13;93.77;98284.06;1700584;82;21042;-66
2022/01/30 07:34:21;;;;;;;4.30;3.47;;;;;;;-1.05;93.25;98287.16;1720964;81;21126;-65
2022/01/30 07:36:47;;;;;;;7.13;4.57;;;;;;;-0.93;93.47;98286.33;1726099;81;21025;-65
2022/01/30 07:39:16;;;;;;;;;;;;;;;-0.84;92.62;98277.49;1729627;81;21023;-64
2022/01/30 07:41:43;;;;;;;3.50;2.90;;;;;;;-0.75;93.25;98280.89;1725421;81;20534;-66
2022/01/30 07:44:12;;;;;;;3.53;3.27;;;;;;;-0.69;93.32;98271.90;1721087;81;21091;-66
2022/01/30 07:46:38;;;;;;;4.45;2.95;;;;;;;-0.61;93.80;98271.87;1724879;81;21102;-67
2022/01/30 07:49:04;;;;;;;3.87;3.52;;;;;;;-0.53;92.20;98268.91;1726696;81;21061;-66
2022/01/30 07:51:30;;;;;;;3.72;3.33;;;;;;;-0.41;91.00;98269.70;1723916;81;21657;-67
2022/01/30 07:53:56;;;;;;;3.80;3.10;;;;;;;-0.30;91.67;98272.45;1749609;81;21050;-65
2022/01/30 07:56:23;;;;;;;3.77;3.05;;;;;;;-0.24;91.20;98269.14;1753211;81;20991;-66
2022/01/30 07:58:50;;;;;;;5.00;3.67;;;;;;;-0.11;91.00;98263.37;1729569;81;20983;-68
2022/01/30 08:01:16;;;;;;;;;;;;;;;-0.03;90.37;98262.52;1721769;81;20995;-74
2022/01/30 08:05:10;;;;;;;3.83;3.47;;;;;;;0.15;89.74;98257.84;1789550;78;22939;-72
2022/01/30 08:07:36;;;;;;;3.87;2.55;;;;;;;0.20;90.48;98248.14;1732803;80;21014;-74
2022/01/30 08:10:03;;;;;;;6.70;3.87;;;;;;;0.35;89.92;98244.28;1753651;80;21086;-73
2022/01/30 08:12:31;;;;;;;3.63;3.33;;;;;;;0.47;88.86;98249.45;1700931;80;22054;-73
2022/01/30 08:14:57;;;;;;;4.03;3.47;;;;;;;0.53;87.50;98250.55;1675762;83;21059;-72
2022/01/30 08:17:23;;;;;;;4.80;4.30;;;;;;;0.55;87.30;98240.70;1680766;83;21135;-72
2022/01/30 08:19:51;;;;;;;4.58;4.10;;;;;;;0.62;88.35;98236.37;1681059;83;21565;-73
2022/01/30 08:22:18;;;;;;;4.20;3.30;;;;;;;0.74;89.37;98240.72;1682343;83;21194;-72
2022/01/30 08:24:44;;;;;;;3.72;3.42;;;;;;;0.85;89.81;98236.84;1693938;83;21047;-76
2022/01/30 08:27:10;;;;;;;4.53;3.40;;;;;;;0.92;89.78;98235.98;1696367;83;21523;-76
2022/01/30 08:29:37;;;;;;;3.83;3.27;;;;;;;0.91;88.99;98230.40;1697571;83;21047;-78
2022/01/30 08:32:11;;;;;;;3.60;3.07;;;;;;;0.96;88.27;98228.54;1696889;83;21112;-71
2022/01/30 08:34:34;;;;;;;4.43;3.93;;;;;;;0.99;86.88;98225.57;1676870;83;21573;-70
2022/01/30 08:37:00;;;;;;;4.08;2.80;;;;;;;1.09;87.31;98222.20;1674306;84;21053;-69
2022/01/30 08:39:26;;;;;;;4.45;3.12;;;;;;;1.21;87.77;98220.45;1661639;84;21615;-64
2022/01/30 08:41:52;;;;;;;4.67;3.90;;;;;;;1.34;87.92;98225.89;1658041;84;21184;-71
2022/01/30 08:44:18;;;;;;;5.25;3.92;;;;;;;1.44;89.08;98212.48;1657095;83;21013;-69
2022/01/30 08:46:44;;;;;;;9.60;3.80;;;;;;;1.50;87.79;98223.05;1662304;84;21548;-69
2022/01/30 08:49:14;;;;;;;3.65;3.27;;;;;;;1.54;84.99;98205.13;1660009;84;21638;-68
2022/01/30 08:51:40;;;;;;;4.60;3.03;;;;;;;1.62;86.16;98224.75;1654962;84;21059;-67
2022/01/30 08:54:06;;;;;;;3.15;2.80;;;;;;;1.75;87.50;98205.21;1664139;84;21071;-70
2022/01/30 08:56:33;;;;;;;4.67;3.25;;;;;;;1.86;86.46;98196.02;1654877;83;21033;-69
2022/01/30 08:58:59;;;;;;;5.25;3.50;;;;;;;1.92;86.24;98197.09;1651666;85;21097;-66
2022/01/30 09:01:24;;;;;;;3.42;3.12;;;;;;;1.93;87.56;98202.67;1664514;83;21001;-69
2022/01/30 09:03:51;;;;;;;4.25;3.22;;;;;;;1.92;86.80;98190.05;1692395;83;21058;-72
2022/01/30 09:06:17;;;;;;;4.78;3.15;;;;;;;1.97;85.59;98185.53;1695806;83;21164;-68
2022/01/30 09:08:43;;;;;;;;;;;;;;;2.12;87.01;98187.61;1696438;83;21509;-70
2022/01/30 09:11:09;;;;;;;4.27;3.40;;;;;;;2.24;86.78;98193.21;1690574;80;20149;-70
2022/01/30 09:13:35;;;;;;;5.42;3.45;;;;;;;2.34;86.48;98182.38;1671120;84;21062;-71
2022/01/30 09:16:03;;;;;;;2.47;2.35;;;;;;;2.43;86.22;98183.88;1668358;84;21581;-70
2022/01/30 09:18:30;;;;;;;4.77;3.73;;;;;;;2.45;86.67;98181.03;1659282;84;21610;-69
2022/01/30 09:20:57;;;;;;;6.03;3.03;;;;;;;2.48;86.08;98175.41;1667303;84;21123;-68
2022/01/30 09:23:24;;;;;;;3.40;2.83;;;;;;;2.57;86.87;98178.73;1665136;83;21061;-71
2022/01/30 09:25:50;;;;;;;2.98;2.58;;;;;;;2.67;86.07;98181.33;1646195;85;21059;-69
2022/01/30 09:28:17;;;;;;;5.15;3.25;;;;;;;2.76;86.18;98182.52;1643524;85;21164;-69
2022/01/30 09:30:43;;;;;;;4.45;3.33;;;;;;;2.82;85.36;98174.66;1650468;85;21078;-71
2022/01/30 09:33:09;;;;;;;4.10;2.85;;;;;;;2.83;84.35;98183.39;1620352;87;21550;-73
2022/01/30 09:35:35;;;;;;;4.37;3.55;;;;;;;2.81;85.26;98173.05;1612641;88;21039;-72
2022/01/30 09:38:01;;;;;;;3.60;3.30;;;;;;;2.90;86.22;98175.02;1618712;87;21108;-72
2022/01/30 09:40:28;;;;;;;9.98;4.10;;;;;;;3.06;86.85;98175.23;1617892;87;21568;-73
2022/01/30 09:42:56;;;;;;;3.20;2.90;;;;;;;3.22;86.95;98170.16;1622753;87;21080;-72
2022/01/30 09:45:25;;;;;;;6.60;4.30;;;;;;;3.33;85.35;98166.17;1631533;86;21065;-73
2022/01/30 09:47:51;;;;;;;10.03;8.03;;;;;;;3.39;85.01;98173.28;1642846;86;21060;-71
2022/01/30 09:50:21;;;;;;;11.90;10.70;;;;;;;3.55;84.17;98165.58;1606800;86;21151;-72
2022/01/30 09:52:46;;;;;;;13.33;12.03;;;;;;;3.55;84.17;98165.58;1638860;86;21032;-73
2022/01/30 09:55:15;;;;;;;18.90;13.50;;;;;;;3.28;83.76;98160.98;1642004;83;21074;-71
2022/01/30 09:57:43;;;;;;;17.57;13.97;;;;;;;3.07;84.87;98167.16;1684429;83;21025;-73
2022/01/30 10:00:11;;;;;;;18.90;16.97;;;;;;;2.85;85.83;98178.23;1667099;83;22015;-73
2022/01/30 10:02:43;;;;;;;20.70;17.00;;;;;;;2.76;87.51;98175.94;1676287;84;21723;-72
2022/01/30 10:05:15;;;;;;;19.87;16.50;;;;;;;2.93;89.12;98168.87;1676509;84;21712;-73
2022/01/30 10:07:51;;;;;;;16.63;14.93;;;;;;;3.17;89.77;98169.95;1677857;84;21561;-74
2022/01/30 10:10:19;;;;;;;18.33;15.23;;;;;;;3.29;89.33;98170.50;1693766;83;21080;-75
2022/01/30 10:13:14;;;;;;;23.47;19.37;;;;;;;3.33;88.99;98173.56;1687151;81;21102;-74
2022/01/30 10:15:56;;;;;;;19.53;17.43;;;;;;;3.36;89.26;98171.06;1693614;83;21100;-73
2022/01/30 10:18:31;;;;;;;21.67;19.37;;;;;;;3.44;89.91;98169.56;1690807;83;21114;-74
2022/01/30 10:20:54;;;;;;;20.53;18.40;;;;;;;3.49;90.28;98173.24;1695114;83;21670;-76
2022/01/30 10:23:33;;;;;;;20.40;18.55;;;;;;;3.61;90.80;98165.59;1679424;83;21109;-73
2022/01/30 10:26:03;;;;;;;20.17;17.93;;;;;;;3.66;90.45;98154.47;1669987;84;21068;-75
2022/01/30 10:28:32;;;;;;;16.97;15.30;;;;;;;3.70;90.36;98162.28;1669832;84;21069;-78
2022/01/30 10:31:02;;;;;;;14.70;13.30;;;;;;;3.72;90.32;98156.83;1659038;84;21101;-76
2022/01/30 10:33:51;;;;;;;14.03;12.73;;;;;;;3.74;90.27;98157.44;1641729;85;21064;-77
2022/01/30 10:36:25;;;;;;;14.80;12.23;;;;;;;3.72;89.67;98142.33;1623324;86;22271;-76
2022/01/30 10:39:17;;;;;;;13.10;11.80;;;;;;;3.61;89.33;98145.83;1631406;86;21027;-78
2022/01/30 10:41:46;;;;;;;8.93;7.57;;;;;;;3.54;89.30;98137.08;1616077;86;21157;-76
2022/01/30 10:44:11;;;;;;;7.50;6.80;;;;;;;3.49;88.82;98146.91;1631114;86;21091;-76
2022/01/30 10:46:48;;;;;;;8.37;6.27;;;;;;;3.44;88.80;98136.13;1626634;86;21401;-78
2022/01/30 10:49:21;;;;;;;9.07;6.77;;;;;;;3.38;88.25;98132.17;1628720;86;21498;-76
2022/01/30 10:52:01;;;;;;;10.23;6.37;;;;;;;3.36;88.52;98138.14;1663183;84;21093;-75
2022/01/30 10:54:32;;;;;;;10.47;7.40;;;;;;;3.29;88.71;98133.63;1659658;84;21005;-78
2022/01/30 10:57:05;;;;;;;6.97;6.33;;;;;;;3.30;89.00;98132.64;1658030;84;21013;-76
2022/01/30 10:59:35;;;;;;;16.83;7.00;;;;;;;3.26;88.26;98126.15;1660694;84;21084;-75
2022/01/30 11:02:15;;;;;;;6.83;6.20;;;;;;;3.21;87.87;98121.96;1661208;84;21141;-77
2022/01/30 11:04:45;;;;;;;6.80;5.90;;;;;;;3.18;87.82;98106.55;1614883;87;21100;-74
2022/01/30 11:07:11;;;;;;;7.60;5.73;;;;;;;3.17;88.19;98113.34;1633324;86;21015;-77
2022/01/30 11:09:42;;;;;;;8.15;5.60;;;;;;;3.19;88.31;98115.28;1639866;86;21101;-72
2022/01/30 11:12:11;;;;;;;8.83;6.00;;;;;;;3.18;88.00;98118.91;1634845;86;21583;-77
2022/01/30 11:17:08;;;;;;;11.63;7.80;;;;;;;3.23;88.21;98112.56;1606869;87;21117;-77
2022/01/30 11:19:41;;;;;;;9.57;6.87;;;;;;;3.28;88.79;98113.59;1633687;86;20982;-77
2022/01/30 11:22:18;;;;;;;11.63;7.17;;;;;;;3.37;88.97;98113.41;1603433;86;21104;-79
2022/01/30 11:25:05;;;;;;;8.10;6.50;;;;;;;3.41;88.64;98106.74;1621619;87;21549;-79
2022/01/30 11:27:33;;;;;;;5.67;4.97;;;;;;;3.48;88.93;98107.10;1625091;87;21010;-78
2022/01/30 11:30:02;;;;;;;7.73;6.90;;;;;;;3.58;88.75;98104.58;1620885;87;21029;-76
2022/01/30 11:32:29;;;;;;;10.23;7.03;;;;;;;3.62;89.16;98098.73;1628418;86;21568;-77
2022/01/30 11:34:57;;;;;;;7.03;6.30;;;;;;;3.75;89.70;98098.44;1661685;84;21017;-76
2022/01/30 11:37:33;;;;;;;8.47;5.23;;;;;;;3.88;89.75;98099.78;1673965;84;21021;-77
2022/01/30 11:40:11;;;;;;;9.50;5.77;;;;;;;3.99;89.40;98101.83;1630667;86;21032;-76
2022/01/30 11:42:48;;;;;;;6.90;5.57;;;;;;;4.09;88.74;98097.51;1616431;87;21129;-80
2022/01/30 11:45:27;;;;;;;7.37;5.28;;;;;;;4.16;87.89;98090.91;1652789;84;21026;-76
2022/01/30 11:47:58;;;;;;;7.93;5.43;;;;;;;4.15;87.02;98098.02;1633235;86;21085;-78
2022/01/30 11:50:31;;;;;;;6.07;3.73;;;;;;;4.16;87.26;98093.02;1655647;85;21031;-77
2022/01/30 11:53:08;;;;;;;8.20;5.37;;;;;;;4.18;86.20;98091.02;1659342;84;21077;-76
2022/01/30 11:55:58;;;;;;;7.03;6.33;;;;;;;4.17;86.42;98076.72;1651343;84;21671;-78
2022/01/30 11:58:47;;;;;;;11.00;5.63;;;;;;;4.20;87.03;98086.84;1667118;85;21112;-77
2022/01/30 12:01:34;;;;;;;10.93;4.73;;;;;;;4.27;87.23;98078.44;1664572;84;21066;-76
2022/01/30 12:04:00;;;;;;;11.33;5.23;;;;;;;4.34;86.99;98075.30;1664688;84;21028;-76
2022/01/30 12:06:32;;;;;;;5.17;4.47;;;;;;;4.35;84.54;98076.93;1660434;84;21001;-77
2022/01/30 12:09:01;;;;;;;6.13;3.50;;;;;;;4.34;85.65;98081.08;1651970;84;21088;-78
2022/01/30 12:11:47;;;;;;;8.57;4.30;;;;;;;4.39;86.11;98078.14;1650351;84;21124;-77
2022/01/30 12:14:26;;;;;;;6.83;3.60;;;;;;;4.45;86.51;98081.79;1668590;84;21005;-77
2022/01/30 12:17:03;;;;;;;8.13;4.43;;;;;;;4.47;86.44;98077.92;1668609;84;21065;-77
2022/01/30 12:19:40;;;;;;;8.10;3.73;;;;;;;4.48;86.46;98075.59;1665293;84;21598;-79
2022/01/30 12:22:28;;;;;;;7.30;3.57;;;;;;;4.50;85.82;98079.33;1648326;84;21088;-78
2022/01/30 12:25:25;;;;;;;8.90;3.37;;;;;;;4.48;85.55;98071.64;1636382;86;21082;-79
2022/01/30 12:27:55;;;;;;;7.50;3.70;;;;;;;4.49;85.76;98069.29;1653661;85;21013;-80
2022/01/30 12:30:47;;;;;;;6.23;3.27;;;;;;;4.51;85.54;98080.16;1652034;85;21009;-77
2022/01/30 12:33:38;;;;;;;5.93;3.27;;;;;;;4.49;84.26;98076.41;1640979;85;21067;-79
2022/01/30 12:36:17;;;;;;;8.23;4.47;;;;;;;4.44;84.20;98078.31;1649407;85;21112;-76
2022/01/30 12:38:44;;;;;;;7.60;3.50;;;;;;;4.44;84.59;98076.20;1657071;85;21073;-80
2022/01/30 12:41:22;;;;;;;4.87;3.43;;;;;;;4.43;84.98;98075.39;1651493;85;21081;-77
2022/01/30 12:43:57;;;;;;;;;;;;;;;4.41;83.08;98081.90;1661413;85;21084;-78
2022/01/30 12:46:30;;;;;;;6.93;4.07;;;;;;;4.37;83.80;98080.17;1656727;85;20180;-77
2022/01/30 12:49:07;;;;;;;5.83;2.47;;;;;;;4.37;84.93;98080.17;1662767;85;21017;-75
2022/01/30 12:51:37;;;;;;;8.67;3.07;;;;;;;4.40;83.21;98082.90;1653521;85;21076;-78